Wetterdaten: Woche 03.04.17 - 09.04.17 (KW14)
Datum Zeit Temp. Aussen Temp. o. S. +5cm Feuchte Auss BlattFeu 1 Luftdruck Regen Sonnenschein Regendauer Solar Windben Empfang
03.04.2017 00:00 9,1 C 7,4 C 5,3 C 83 % 1 lf 1024,3 hPa 0,0 l/m 0,00 h 0,00 h 0 W/m 4,1 km/h (1 Bft) 97,60 %
03.04.2017 01:00 8,4 C 6,8 C 4,5 C 86 % 1 lf 1024,6 hPa 0,0 l/m 0,00 h 0,00 h 0 W/m 2,8 km/h (1 Bft) 97,23 %
03.04.2017 02:00 7,6 C 5,9 C 3,9 C 88 % 4 lf 1024,8 hPa 0,0 l/m 0,00 h 0,00 h 1 W/m 0,6 km/h (0 Bft) 92,91 %
03.04.2017 03:00 6,8 C 5,1 C 3,3 C 89 % 13 lf 1024,9 hPa 0,0 l/m 0,00 h 0,00 h 3 W/m 1,8 km/h (1 Bft) 98,01 %
03.04.2017 04:00 6,8 C 6,4 C 5,2 C 93 % 15 lf 1025,0 hPa 0,0 l/m 0,00 h 0,00 h 2 W/m 10,7 km/h (2 Bft) 97,49 %
03.04.2017 05:00 6,9 C 6,7 C 5,6 C 95 % 15 lf 1025,3 hPa 0,0 l/m 0,00 h 0,00 h 2 W/m 11,1 km/h (2 Bft) 95,29 %
03.04.2017 06:00 6,8 C 6,7 C 5,6 C 96 % 15 lf 1025,4 hPa 0,0 l/m 0,00 h 0,00 h 0 W/m 8,6 km/h (2 Bft) 96,05 %
03.04.2017 07:00 6,7 C 6,8 C 5,7 C 97 % 15 lf 1025,8 hPa 0,0 l/m 0,00 h 0,00 h 6 W/m 8,8 km/h (2 Bft) 95,99 %
03.04.2017 08:00 6,9 C 7,2 C 6,1 C 97 % 15 lf 1026,4 hPa 0,0 l/m 0,00 h 0,00 h 32 W/m 10,8 km/h (2 Bft) 96,29 %
03.04.2017 09:00 6,9 C 8,0 C 7,0 C 98 % 4 lf 1026,7 hPa 0,0 l/m 0,00 h 0,00 h 69 W/m 8,8 km/h (2 Bft) 97,08 %
03.04.2017 10:00 7,5 C 9,6 C 8,7 C 98 % 0 lf 1026,8 hPa 0,0 l/m 0,00 h 0,00 h 104 W/m 4,8 km/h (1 Bft) 95,19 %
03.04.2017 11:00 8,2 C 10,6 C 9,5 C 98 % 0 lf 1026,9 hPa 0,0 l/m 0,00 h 0,00 h 139 W/m 7,3 km/h (2 Bft) 95,56 %
03.04.2017 12:00 9,2 C 13,4 C 12,1 C 96 % 0 lf 1026,9 hPa 0,0 l/m 0,27 h 0,00 h 302 W/m 7,3 km/h (2 Bft) 98,79 %
03.04.2017 13:00 11,8 C 21,4 C 14,0 C 85 % 0 lf 1026,6 hPa 0,0 l/m 1,02 h 0,00 h 621 W/m 8,7 km/h (2 Bft) 93,56 %
03.04.2017 14:00 14,0 C 24,3 C 13,8 C 76 % 0 lf 1026,1 hPa 0,0 l/m 0,93 h 0,00 h 674 W/m 13,1 km/h (3 Bft) 98,46 %
03.04.2017 15:00 14,8 C 24,4 C 16,1 C 72 % 0 lf 1025,5 hPa 0,0 l/m 1,05 h 0,00 h 592 W/m 12,5 km/h (3 Bft) 98,19 %
03.04.2017 16:00 15,4 C 23,7 C 14,5 C 68 % 0 lf 1025,1 hPa 0,0 l/m 1,00 h 0,00 h 496 W/m 11,5 km/h (2 Bft) 93,71 %
03.04.2017 17:00 15,6 C 22,6 C 13,6 C 64 % 0 lf 1024,7 hPa 0,0 l/m 1,00 h 0,00 h 365 W/m 11,5 km/h (2 Bft) 98,22 %
03.04.2017 18:00 15,5 C 17,6 C 12,8 C 60 % 0 lf 1024,3 hPa 0,0 l/m 1,00 h 0,00 h 198 W/m 10,0 km/h (2 Bft) 96,59 %
03.04.2017 19:00 14,7 C 14,1 C 11,7 C 62 % 0 lf 1024,1 hPa 0,0 l/m 0,13 h 0,00 h 38 W/m 8,3 km/h (2 Bft) 95,57 %
03.04.2017 20:00 13,1 C 10,7 C 7,4 C 68 % 0 lf 1024,3 hPa 0,0 l/m 0,00 h 0,00 h 5 W/m 5,0 km/h (1 Bft) 97,30 %
03.04.2017 21:00 10,9 C 8,4 C 5,4 C 74 % 0 lf 1024,4 hPa 0,0 l/m 0,00 h 0,00 h 2 W/m 2,7 km/h (1 Bft) 96,83 %
03.04.2017 22:00 9,4 C 7,4 C 4,6 C 78 % 0 lf 1024,5 hPa 0,0 l/m 0,00 h 0,00 h 2 W/m 0,3 km/h (0 Bft) 93,73 %
03.04.2017 23:00 8,2 C 6,1 C 3,7 C 82 % 0 lf 1024,3 hPa 0,0 l/m 0,00 h 0,00 h 0 W/m 0,0 km/h (0 Bft) 96,94 %
04.04.2017 00:00 7,0 C 5,2 C 3,2 C 85 % 1 lf 1024,3 hPa 0,0 l/m 0,00 h 0,00 h 2 W/m 0,0 km/h (0 Bft) 97,33 %
04.04.2017 01:00 6,1 C 4,6 C 2,8 C 86 % 2 lf 1024,2 hPa 0,0 l/m 0,00 h 0,00 h 3 W/m 0,0 km/h (0 Bft) 96,01 %
04.04.2017 02:00 5,3 C 4,2 C 2,2 C 88 % 5 lf 1023,8 hPa 0,0 l/m 0,00 h 0,00 h 4 W/m 0,0 km/h (0 Bft) 97,44 %
04.04.2017 03:00 4,8 C 3,3 C 1,8 C 90 % 14 lf 1023,4 hPa 0,0 l/m 0,00 h 0,00 h 2 W/m 0,0 km/h (0 Bft) 95,37 %
04.04.2017 04:00 4,2 C 2,6 C 1,2 C 91 % 15 lf 1023,2 hPa 0,0 l/m 0,00 h 0,00 h 2 W/m 0,0 km/h (0 Bft) 94,80 %
04.04.2017 05:00 3,6 C 2,1 C 0,8 C 91 % 15 lf 1023,0 hPa 0,0 l/m 0,00 h 0,00 h 0 W/m 0,0 km/h (0 Bft) 97,37 %
04.04.2017 06:00 3,0 C 1,8 C 0,6 C 91 % 15 lf 1023,1 hPa 0,0 l/m 0,00 h 0,00 h 2 W/m 0,0 km/h (0 Bft) 97,08 %
04.04.2017 07:00 2,8 C 2,6 C 1,1 C 93 % 15 lf 1023,2 hPa 0,0 l/m 0,67 h 0,00 h 36 W/m 0,3 km/h (0 Bft) 96,30 %
04.04.2017 08:00 4,1 C 6,2 C 3,4 C 95 % 15 lf 1023,4 hPa 0,0 l/m 1,00 h 0,00 h 168 W/m 5,0 km/h (1 Bft) 94,47 %
04.04.2017 09:00 7,7 C 15,3 C 6,9 C 96 % 2 lf 1023,5 hPa 0,0 l/m 1,00 h 0,00 h 349 W/m 8,7 km/h (2 Bft) 96,58 %
04.04.2017 10:00 11,8 C 19,9 C 15,4 C 80 % 0 lf 1023,6 hPa 0,0 l/m 1,00 h 0,00 h 507 W/m 7,1 km/h (2 Bft) 97,01 %
04.04.2017 11:00 14,4 C 24,9 C 19,3 C 69 % 0 lf 1023,8 hPa 0,0 l/m 1,00 h 0,00 h 616 W/m 7,1 km/h (2 Bft) 95,45 %
04.04.2017 12:00 15,4 C 24,8 C 17,8 C 60 % 0 lf 1023,6 hPa 0,0 l/m 1,00 h 0,00 h 656 W/m 11,1 km/h (2 Bft) 96,79 %
04.04.2017 13:00 16,2 C 26,4 C 16,3 C 57 % 0 lf 1023,4 hPa 0,0 l/m 1,00 h 0,00 h 785 W/m 11,8 km/h (2 Bft) 97,18 %
04.04.2017 14:00 16,4 C 24,8 C 16,0 C 53 % 0 lf 1023,0 hPa 0,0 l/m 0,73 h 0,00 h 583 W/m 10,8 km/h (2 Bft) 94,90 %
04.04.2017 15:00 16,6 C 23,1 C 17,2 C 52 % 0 lf 1022,7 hPa 0,0 l/m 0,78 h 0,00 h 537 W/m 15,7 km/h (3 Bft) 96,64 %
04.04.2017 16:00 16,5 C 23,5 C 15,9 C 52 % 0 lf 1022,3 hPa 0,0 l/m 0,93 h 0,00 h 527 W/m 20,9 km/h (4 Bft) 99,12 %
04.04.2017 17:00 16,5 C 21,4 C 14,9 C 50 % 0 lf 1022,1 hPa 0,0 l/m 1,00 h 0,00 h 362 W/m 19,9 km/h (4 Bft) 98,03 %
04.04.2017 18:00 15,8 C 17,0 C 13,9 C 52 % 0 lf 1022,3 hPa 0,0 l/m 1,00 h 0,00 h 179 W/m 20,5 km/h (4 Bft) 97,73 %
04.04.2017 19:00 14,7 C 14,2 C 12,2 C 56 % 0 lf 1022,5 hPa 0,0 l/m 0,17 h 0,00 h 37 W/m 11,2 km/h (2 Bft) 96,53 %
04.04.2017 20:00 13,3 C 11,7 C 9,1 C 60 % 0 lf 1022,8 hPa 0,0 l/m 0,00 h 0,00 h 8 W/m 6,0 km/h (2 Bft) 96,08 %
04.04.2017 21:00 11,5 C 8,9 C 6,0 C 66 % 0 lf 1023,3 hPa 0,0 l/m 0,00 h 0,00 h 0 W/m 2,5 km/h (1 Bft) 94,24 %
04.04.2017 22:00 9,6 C 7,1 C 4,7 C 72 % 0 lf 1023,5 hPa 0,0 l/m 0,00 h 0,00 h 0 W/m 1,0 km/h (0 Bft) 98,86 %
04.04.2017 23:00 8,1 C 6,1 C 4,0 C 77 % 0 lf 1023,6 hPa 0,0 l/m 0,00 h 0,00 h 0 W/m 0,5 km/h (0 Bft) 96,30 %
05.04.2017 00:00 7,1 C 5,3 C 3,4 C 80 % 0 lf 1023,8 hPa 0,0 l/m 0,00 h 0,00 h 0 W/m 0,0 km/h (0 Bft) 94,69 %
05.04.2017 01:00 6,4 C 4,9 C 3,0 C 82 % 0 lf 1023,9 hPa 0,0 l/m 0,00 h 0,00 h 0 W/m 2,0 km/h (1 Bft) 95,51 %
05.04.2017 02:00 5,7 C 4,4 C 2,4 C 84 % 0 lf 1023,8 hPa 0,0 l/m 0,00 h 0,00 h 0 W/m 0,0 km/h (0 Bft) 96,61 %
05.04.2017 03:00 5,3 C 4,0 C 2,2 C 86 % 0 lf 1023,6 hPa 0,0 l/m 0,00 h 0,00 h 0 W/m 0,5 km/h (0 Bft) 97,29 %
05.04.2017 04:00 4,9 C 4,2 C 2,2 C 88 % 1 lf 1023,5 hPa 0,0 l/m 0,00 h 0,00 h 0 W/m 1,8 km/h (1 Bft) 95,02 %
05.04.2017 05:00 4,6 C 3,4 C 1,8 C 89 % 2 lf 1023,4 hPa 0,0 l/m 0,00 h 0,00 h 0 W/m 0,1 km/h (0 Bft) 96,82 %
05.04.2017 06:00 4,0 C 3,1 C 1,7 C 90 % 3 lf 1023,6 hPa 0,0 l/m 0,00 h 0,00 h 6 W/m 1,5 km/h (1 Bft) 95,30 %
05.04.2017 07:00 4,1 C 4,5 C 3,2 C 92 % 3 lf 1024,2 hPa 0,0 l/m 0,00 h 0,00 h 26 W/m 3,1 km/h (1 Bft) 96,04 %
05.04.2017 08:00 6,0 C 7,8 C 6,4 C 95 % 1 lf 1024,8 hPa 0,0 l/m 0,00 h 0,00 h 73 W/m 8,7 km/h (2 Bft) 97,68 %
05.04.2017 09:00 7,6 C 8,6 C 7,4 C 96 % 0 lf 1025,5 hPa 0,0 l/m 0,03 h 0,00 h 82 W/m 14,5 km/h (3 Bft) 95,73 %
05.04.2017 10:00 8,4 C 10,4 C 9,2 C 96 % 0 lf 1025,8 hPa 0,0 l/m 0,17 h 0,00 h 154 W/m 12,2 km/h (2 Bft) 94,10 %
05.04.2017 11:00 9,4 C 11,8 C 10,5 C 95 % 0 lf 1025,8 hPa 0,0 l/m 0,00 h 0,00 h 152 W/m 12,9 km/h (3 Bft) 97,79 %
05.04.2017 12:00 10,9 C 14,9 C 12,8 C 86 % 0 lf 1025,5 hPa 0,0 l/m 0,23 h 0,00 h 319 W/m 12,5 km/h (3 Bft) 95,23 %
05.04.2017 13:00 12,2 C 15,6 C 14,1 C 77 % 0 lf 1025,1 hPa 0,0 l/m 0,20 h 0,00 h 294 W/m 15,2 km/h (3 Bft) 95,87 %
05.04.2017 14:00 13,6 C 17,7 C 14,9 C 70 % 0 lf 1024,6 hPa 0,0 l/m 0,33 h 0,00 h 315 W/m 17,2 km/h (3 Bft) 97,43 %
05.04.2017 15:00 13,8 C 16,6 C 14,8 C 67 % 0 lf 1024,4 hPa 0,0 l/m 0,23 h 0,00 h 263 W/m 22,7 km/h (4 Bft) 95,80 %
05.04.2017 16:00 13,7 C 16,6 C 14,2 C 63 % 0 lf 1024,1 hPa 0,0 l/m 0,43 h 0,00 h 283 W/m 24,7 km/h (4 Bft) 95,16 %
05.04.2017 17:00 13,2 C 14,3 C 12,7 C 64 % 0 lf 1024,0 hPa 0,0 l/m 0,03 h 0,00 h 145 W/m 22,9 km/h (4 Bft) 97,80 %
05.04.2017 18:00 12,0 C 12,4 C 11,1 C 67 % 0 lf 1024,3 hPa 0,0 l/m 0,00 h 0,00 h 83 W/m 23,8 km/h (4 Bft) 95,31 %
05.04.2017 19:00 10,8 C 10,9 C 9,4 C 69 % 0 lf 1024,7 hPa 0,0 l/m 0,00 h 0,00 h 26 W/m 22,2 km/h (4 Bft) 97,58 %
05.04.2017 20:00 9,9 C 9,3 C 7,7 C 72 % 0 lf 1025,1 hPa 0,0 l/m 0,00 h 0,00 h 9 W/m 15,8 km/h (3 Bft) 94,87 %
05.04.2017 21:00 8,6 C 7,3 C 5,7 C 76 % 0 lf 1025,6 hPa 0,0 l/m 0,00 h 0,00 h 5 W/m 11,5 km/h (2 Bft) 96,01 %
05.04.2017 22:00 7,4 C 6,3 C 4,5 C 80 % 0 lf 1025,8 hPa 0,0 l/m 0,00 h 0,00 h 5 W/m 11,9 km/h (2 Bft) 97,65 %
05.04.2017 23:00 6,7 C 6,3 C 4,9 C 82 % 0 lf 1026,0 hPa 0,0 l/m 0,00 h 0,00 h 3 W/m 11,9 km/h (2 Bft) 97,65 %
06.04.2017 00:00 6,7 C 6,3 C 5,0 C 84 % 2 lf 1026,1 hPa 0,0 l/m 0,00 h 0,17 h 0 W/m 12,6 km/h (3 Bft) 92,45 %
06.04.2017 01:00 6,5 C 5,4 C 3,8 C 88 % 15 lf 1025,9 hPa 0,0 l/m 0,00 h 0,07 h 0 W/m 9,4 km/h (2 Bft) 97,21 %
06.04.2017 02:00 5,5 C 4,5 C 2,7 C 89 % 15 lf 1025,8 hPa 0,0 l/m 0,00 h 0,00 h 1 W/m 8,7 km/h (2 Bft) 96,53 %
06.04.2017 03:00 5,2 C 5,0 C 3,4 C 91 % 15 lf 1025,7 hPa 0,2 l/m 0,00 h 0,00 h 0 W/m 8,7 km/h (2 Bft) 95,22 %
06.04.2017 04:00 5,3 C 5,4 C 3,7 C 92 % 12 lf 1025,7 hPa 0,0 l/m 0,00 h 0,00 h 0 W/m 8,0 km/h (2 Bft) 97,59 %
06.04.2017 05:00 5,5 C 5,6 C 4,1 C 93 % 4 lf 1025,7 hPa 0,0 l/m 0,00 h 0,00 h 0 W/m 9,4 km/h (2 Bft) 93,81 %
06.04.2017 06:00 5,7 C 5,6 C 4,4 C 93 % 14 lf 1026,1 hPa 0,0 l/m 0,00 h 0,10 h 0 W/m 7,1 km/h (2 Bft) 96,09 %
06.04.2017 07:00 5,8 C 5,8 C 4,4 C 94 % 15 lf 1026,5 hPa 0,0 l/m 0,00 h 0,20 h 20 W/m 10,8 km/h (2 Bft) 96,65 %
06.04.2017 08:00 6,1 C 7,2 C 5,6 C 94 % 13 lf 1027,0 hPa 0,0 l/m 0,00 h 0,00 h 75 W/m 9,6 km/h (2 Bft) 97,58 %
06.04.2017 09:00 7,0 C 9,3 C 7,6 C 94 % 0 lf 1027,4 hPa 0,0 l/m 0,00 h 0,00 h 147 W/m 10,8 km/h (2 Bft) 94,16 %
06.04.2017 10:00 7,7 C 9,3 C 7,8 C 88 % 0 lf 1027,6 hPa 0,0 l/m 0,00 h 0,00 h 119 W/m 12,4 km/h (3 Bft) 95,02 %
06.04.2017 11:00 8,0 C 10,0 C 8,9 C 84 % 0 lf 1027,9 hPa 0,0 l/m 0,00 h 0,00 h 181 W/m 12,1 km/h (2 Bft) 98,58 %
06.04.2017 12:00 8,4 C 10,8 C 9,5 C 81 % 0 lf 1028,1 hPa 0,0 l/m 0,00 h 0,00 h 189 W/m 10,4 km/h (2 Bft) 94,94 %
06.04.2017 13:00 9,2 C 12,1 C 10,8 C 78 % 0 lf 1028,1 hPa 0,0 l/m 0,00 h 0,00 h 226 W/m 11,1 km/h (2 Bft) 94,59 %
06.04.2017 14:00 9,9 C 13,4 C 11,7 C 77 % 0 lf 1027,9 hPa 0,0 l/m 0,23 h 0,00 h 281 W/m 14,3 km/h (3 Bft) 97,37 %
06.04.2017 15:00 10,5 C 13,2 C 12,1 C 74 % 0 lf 1027,5 hPa 0,0 l/m 0,23 h 0,00 h 255 W/m 15,1 km/h (3 Bft) 96,87 %
06.04.2017 16:00 10,9 C 13,0 C 12,2 C 72 % 0 lf 1027,1 hPa 0,0 l/m 0,00 h 0,00 h 222 W/m 16,9 km/h (3 Bft) 94,16 %
06.04.2017 17:00 10,4 C 12,2 C 10,7 C 73 % 0 lf 1026,8 hPa 0,0 l/m 0,33 h 0,00 h 182 W/m 15,1 km/h (3 Bft) 96,58 %
06.04.2017 18:00 10,5 C 12,1 C 10,2 C 72 % 0 lf 1026,8 hPa 0,0 l/m 0,33 h 0,00 h 150 W/m 15,0 km/h (3 Bft) 97,14 %
06.04.2017 19:00 10,1 C 10,1 C 8,7 C 73 % 0 lf 1026,6 hPa 0,0 l/m 0,00 h 0,00 h 42 W/m 9,8 km/h (2 Bft) 95,67 %
06.04.2017 20:00 9,3 C 8,1 C 6,4 C 74 % 0 lf 1026,7 hPa 0,0 l/m 0,00 h 0,00 h 7 W/m 3,5 km/h (1 Bft) 95,01 %
06.04.2017 21:00 8,2 C 6,4 C 4,7 C 76 % 0 lf 1026,9 hPa 0,0 l/m 0,00 h 0,00 h 3 W/m 2,6 km/h (1 Bft) 96,44 %
06.04.2017 22:00 6,9 C 5,7 C 4,0 C 80 % 0 lf 1027,2 hPa 0,0 l/m 0,00 h 0,00 h 4 W/m 4,3 km/h (1 Bft) 97,15 %
06.04.2017 23:00 6,5 C 6,7 C 5,4 C 84 % 0 lf 1027,1 hPa 0,0 l/m 0,00 h 0,00 h 0 W/m 3,9 km/h (1 Bft) 97,94 %
07.04.2017 00:00 6,6 C 5,7 C 3,8 C 85 % 0 lf 1026,8 hPa 0,0 l/m 0,00 h 0,00 h 5 W/m 3,3 km/h (1 Bft) 92,97 %
07.04.2017 01:00 5,9 C 5,2 C 3,4 C 85 % 0 lf 1026,4 hPa 0,0 l/m 0,00 h 0,00 h 4 W/m 3,5 km/h (1 Bft) 97,38 %
07.04.2017 02:00 5,5 C 5,2 C 3,8 C 88 % 0 lf 1025,7 hPa 0,0 l/m 0,00 h 0,00 h 0 W/m 6,2 km/h (2 Bft) 96,38 %
07.04.2017 03:00 5,1 C 4,5 C 3,2 C 89 % 0 lf 1025,3 hPa 0,0 l/m 0,00 h 0,00 h 0 W/m 4,2 km/h (1 Bft) 95,86 %
07.04.2017 04:00 5,1 C 5,4 C 4,2 C 90 % 0 lf 1025,1 hPa 0,0 l/m 0,00 h 0,00 h 0 W/m 5,9 km/h (2 Bft) 96,38 %
07.04.2017 05:00 5,4 C 5,8 C 4,6 C 91 % 0 lf 1024,9 hPa 0,0 l/m 0,00 h 0,00 h 0 W/m 8,8 km/h (2 Bft) 93,44 %
07.04.2017 06:00 5,7 C 6,1 C 5,0 C 91 % 0 lf 1024,8 hPa 0,0 l/m 0,00 h 0,00 h 4 W/m 8,7 km/h (2 Bft) 97,01 %
07.04.2017 07:00 6,0 C 6,5 C 5,3 C 91 % 0 lf 1024,8 hPa 0,0 l/m 0,00 h 0,00 h 18 W/m 8,7 km/h (2 Bft) 97,30 %
07.04.2017 08:00 6,5 C 7,4 C 6,6 C 90 % 0 lf 1024,9 hPa 0,0 l/m 0,00 h 0,00 h 67 W/m 11,5 km/h (2 Bft) 96,09 %
07.04.2017 09:00 7,4 C 9,0 C 8,3 C 88 % 0 lf 1024,9 hPa 0,0 l/m 0,00 h 0,00 h 132 W/m 12,9 km/h (3 Bft) 94,49 %
07.04.2017 10:00 8,9 C 11,5 C 10,9 C 83 % 0 lf 1024,8 hPa 0,0 l/m 0,00 h 0,00 h 220 W/m 12,4 km/h (3 Bft) 98,29 %
07.04.2017 11:00 10,6 C 13,3 C 12,7 C 77 % 0 lf 1024,8 hPa 0,0 l/m 0,50 h 0,00 h 331 W/m 11,8 km/h (2 Bft) 95,24 %
07.04.2017 12:00 12,3 C 16,2 C 15,1 C 73 % 0 lf 1024,6 hPa 0,0 l/m 1,00 h 0,00 h 618 W/m 13,7 km/h (3 Bft) 96,44 %
07.04.2017 13:00 13,2 C 15,6 C 14,5 C 70 % 0 lf 1024,4 hPa 0,0 l/m 1,00 h 0,00 h 470 W/m 11,1 km/h (2 Bft) 96,80 %
07.04.2017 14:00 13,0 C 14,6 C 13,4 C 72 % 0 lf 1024,1 hPa 0,0 l/m 0,98 h 0,00 h 442 W/m 13,2 km/h (3 Bft) 95,53 %
07.04.2017 15:00 13,1 C 15,7 C 14,3 C 73 % 0 lf 1023,8 hPa 0,0 l/m 1,00 h 0,00 h 499 W/m 13,3 km/h (3 Bft) 96,54 %
07.04.2017 16:00 13,4 C 15,3 C 14,4 C 70 % 0 lf 1023,5 hPa 0,0 l/m 1,00 h 0,00 h 463 W/m 13,1 km/h (3 Bft) 97,16 %
07.04.2017 17:00 14,1 C 15,6 C 14,5 C 69 % 0 lf 1023,3 hPa 0,0 l/m 1,00 h 0,00 h 432 W/m 11,0 km/h (2 Bft) 94,45 %
07.04.2017 18:00 13,8 C 14,3 C 13,0 C 70 % 0 lf 1023,3 hPa 0,0 l/m 1,00 h 0,00 h 317 W/m 7,7 km/h (2 Bft) 98,93 %
07.04.2017 19:00 13,4 C 13,4 C 11,8 C 72 % 0 lf 1023,4 hPa 0,0 l/m 0,43 h 0,00 h 84 W/m 4,1 km/h (1 Bft) 93,95 %
07.04.2017 20:00 12,8 C 12,2 C 10,4 C 74 % 0 lf 1023,7 hPa 0,0 l/m 0,00 h 0,00 h 12 W/m 2,9 km/h (1 Bft) 95,94 %
07.04.2017 21:00 12,1 C 11,7 C 10,0 C 77 % 0 lf 1024,1 hPa 0,0 l/m 0,00 h 0,00 h 0 W/m 5,3 km/h (1 Bft) 97,15 %
07.04.2017 22:00 11,6 C 11,3 C 9,7 C 79 % 0 lf 1024,3 hPa 0,0 l/m 0,00 h 0,00 h 0 W/m 5,1 km/h (1 Bft) 96,72 %
07.04.2017 23:00 11,3 C 11,1 C 9,4 C 81 % 0 lf 1024,2 hPa 0,0 l/m 0,00 h 0,00 h 0 W/m 5,7 km/h (1 Bft) 93,74 %
08.04.2017 00:00 11,0 C 10,7 C 9,2 C 82 % 0 lf 1024,1 hPa 0,0 l/m 0,00 h 0,00 h 0 W/m 3,8 km/h (1 Bft) 98,58 %
08.04.2017 01:00 10,6 C 10,0 C 8,2 C 83 % 0 lf 1024,0 hPa 0,0 l/m 0,00 h 0,00 h 0 W/m 4,0 km/h (1 Bft) 95,16 %
08.04.2017 02:00 10,0 C 9,4 C 7,9 C 84 % 0 lf 1023,9 hPa 0,0 l/m 0,00 h 0,00 h 0 W/m 3,2 km/h (1 Bft) 96,22 %
08.04.2017 03:00 9,7 C 9,4 C 8,3 C 86 % 0 lf 1023,7 hPa 0,0 l/m 0,00 h 0,00 h 0 W/m 4,1 km/h (1 Bft) 95,80 %
08.04.2017 04:00 9,7 C 9,7 C 8,4 C 87 % 0 lf 1023,5 hPa 0,0 l/m 0,00 h 0,00 h 0 W/m 4,8 km/h (1 Bft) 94,05 %
08.04.2017 05:00 9,6 C 9,5 C 8,2 C 88 % 0 lf 1023,5 hPa 0,0 l/m 0,00 h 0,00 h 4 W/m 5,0 km/h (1 Bft) 97,65 %
08.04.2017 06:00 9,4 C 9,3 C 7,9 C 88 % 0 lf 1023,6 hPa 0,0 l/m 0,00 h 0,00 h 0 W/m 3,4 km/h (1 Bft) 96,57 %
08.04.2017 07:00 9,2 C 9,2 C 8,0 C 89 % 0 lf 1023,9 hPa 0,0 l/m 0,00 h 0,00 h 13 W/m 2,4 km/h (1 Bft) 93,88 %
08.04.2017 08:00 9,3 C 10,5 C 9,3 C 90 % 0 lf 1024,1 hPa 0,0 l/m 0,00 h 0,00 h 64 W/m 2,4 km/h (1 Bft) 96,94 %
08.04.2017 09:00 10,1 C 12,0 C 10,8 C 89 % 0 lf 1024,3 hPa 0,0 l/m 0,00 h 0,00 h 132 W/m 8,7 km/h (2 Bft) 97,79 %
08.04.2017 10:00 10,7 C 14,4 C 12,3 C 87 % 0 lf 1024,5 hPa 0,0 l/m 0,37 h 0,00 h 256 W/m 9,0 km/h (2 Bft) 93,95 %
08.04.2017 11:00 11,9 C 16,2 C 14,1 C 82 % 0 lf 1024,7 hPa 0,0 l/m 1,00 h 0,00 h 581 W/m 11,3 km/h (2 Bft) 97,79 %
08.04.2017 12:00 12,6 C 16,5 C 14,8 C 76 % 0 lf 1024,5 hPa 0,0 l/m 0,43 h 0,00 h 328 W/m 11,0 km/h (2 Bft) 96,09 %
08.04.2017 13:00 13,4 C 18,1 C 15,6 C 72 % 0 lf 1024,1 hPa 0,0 l/m 0,53 h 0,00 h 368 W/m 9,1 km/h (2 Bft) 95,22 %
08.04.2017 14:00 13,8 C 17,3 C 15,9 C 69 % 0 lf 1023,8 hPa 0,0 l/m 0,43 h 0,00 h 320 W/m 9,1 km/h (2 Bft) 96,80 %
08.04.2017 15:00 15,0 C 22,7 C 17,8 C 66 % 0 lf 1023,5 hPa 0,0 l/m 1,00 h 0,00 h 551 W/m 11,3 km/h (2 Bft) 97,22 %
08.04.2017 16:00 15,6 C 23,2 C 15,0 C 63 % 0 lf 1023,1 hPa 0,0 l/m 1,00 h 0,00 h 500 W/m 10,4 km/h (2 Bft) 95,58 %
08.04.2017 17:00 15,4 C 21,1 C 14,0 C 62 % 0 lf 1022,8 hPa 0,0 l/m 1,00 h 0,00 h 350 W/m 10,1 km/h (2 Bft) 95,59 %
08.04.2017 18:00 14,8 C 16,1 C 12,9 C 62 % 0 lf 1022,6 hPa 0,0 l/m 1,00 h 0,00 h 192 W/m 8,7 km/h (2 Bft) 97,20 %
08.04.2017 19:00 14,0 C 13,8 C 11,8 C 65 % 0 lf 1022,5 hPa 0,0 l/m 0,27 h 0,00 h 53 W/m 8,0 km/h (2 Bft) 95,68 %
08.04.2017 20:00 12,7 C 11,6 C 9,8 C 69 % 0 lf 1022,7 hPa 0,0 l/m 0,03 h 0,00 h 10 W/m 7,2 km/h (2 Bft) 94,95 %
08.04.2017 21:00 11,0 C 8,6 C 5,9 C 73 % 0 lf 1023,0 hPa 0,0 l/m 0,00 h 0,00 h 0 W/m 5,3 km/h (1 Bft) 96,54 %
08.04.2017 22:00 9,1 C 6,8 C 4,4 C 78 % 0 lf 1023,2 hPa 0,0 l/m 0,00 h 0,00 h 4 W/m 0,9 km/h (0 Bft) 97,16 %
08.04.2017 23:00 7,7 C 5,5 C 3,7 C 82 % 0 lf 1023,2 hPa 0,0 l/m 0,00 h 0,00 h 0 W/m 0,1 km/h (0 Bft) 97,42 %
09.04.2017 00:00 6,5 C 4,6 C 3,0 C 85 % 1 lf 1023,3 hPa 0,0 l/m 0,00 h 0,00 h 0 W/m 0,0 km/h (0 Bft) 93,71 %
09.04.2017 01:00 5,6 C 3,9 C 2,3 C 87 % 3 lf 1023,3 hPa 0,0 l/m 0,00 h 0,00 h 5 W/m 0,0 km/h (0 Bft) 96,65 %
09.04.2017 02:00 4,9 C 3,0 C 1,7 C 89 % 7 lf 1023,1 hPa 0,0 l/m 0,00 h 0,00 h 5 W/m 0,0 km/h (0 Bft) 97,37 %
09.04.2017 03:00 4,1 C 2,6 C 1,3 C 90 % 14 lf 1022,7 hPa 0,0 l/m 0,00 h 0,00 h 4 W/m 0,0 km/h (0 Bft) 94,80 %
09.04.2017 04:00 3,5 C 2,2 C 1,0 C 90 % 15 lf 1022,6 hPa 0,0 l/m 0,00 h 0,00 h 3 W/m 0,0 km/h (0 Bft) 97,19 %
09.04.2017 05:00 3,0 C 1,6 C 0,6 C 91 % 15 lf 1022,6 hPa 0,0 l/m 0,00 h 0,00 h 5 W/m 0,0 km/h (0 Bft) 95,59 %
09.04.2017 06:00 2,5 C 1,1 C 0,0 C 92 % 15 lf 1022,6 hPa 0,0 l/m 0,00 h 0,00 h 7 W/m 0,0 km/h (0 Bft) 94,15 %
09.04.2017 07:00 2,2 C 2,1 C 0,7 C 92 % 15 lf 1022,8 hPa 0,0 l/m 0,80 h 0,00 h 47 W/m 0,4 km/h (0 Bft) 97,01 %
09.04.2017 08:00 3,8 C 5,8 C 3,5 C 95 % 15 lf 1023,0 hPa 0,0 l/m 1,00 h 0,00 h 178 W/m 6,3 km/h (2 Bft) 96,80 %
09.04.2017 09:00 7,5 C 14,3 C 7,9 C 97 % 3 lf 1023,2 hPa 0,0 l/m 1,00 h 0,00 h 359 W/m 10,2 km/h (2 Bft) 96,08 %
09.04.2017 10:00 12,1 C 19,8 C 16,7 C 86 % 0 lf 1023,2 hPa 0,0 l/m 1,00 h 0,00 h 520 W/m 11,0 km/h (2 Bft) 94,52 %
09.04.2017 11:00 15,6 C 22,9 C 21,3 C 71 % 0 lf 1023,2 hPa 0,0 l/m 1,00 h 0,00 h 608 W/m 9,4 km/h (2 Bft) 97,65 %
09.04.2017 12:00 18,3 C 26,8 C 21,7 C 64 % 0 lf 1022,9 hPa 0,0 l/m 1,00 h 0,00 h 712 W/m 9,7 km/h (2 Bft) 94,88 %
09.04.2017 13:00 20,3 C 28,4 C 20,3 C 56 % 0 lf 1022,5 hPa 0,0 l/m 1,00 h 0,00 h 752 W/m 11,0 km/h (2 Bft) 97,79 %
09.04.2017 14:00 22,1 C 32,2 C 21,2 C 49 % 0 lf 1022,0 hPa 0,0 l/m 1,00 h 0,00 h 727 W/m 8,3 km/h (2 Bft) 96,23 %
09.04.2017 15:00 22,9 C 31,1 C 24,5 C 47 % 0 lf 1021,3 hPa 0,0 l/m 1,00 h 0,00 h 648 W/m 7,8 km/h (2 Bft) 96,01 %
09.04.2017 16:00 23,3 C 31,6 C 21,3 C 38 % 0 lf 1020,5 hPa 0,0 l/m 1,00 h 0,00 h 558 W/m 7,8 km/h (2 Bft) 96,65 %
09.04.2017 17:00 23,6 C 29,4 C 20,4 C 38 % 0 lf 1019,9 hPa 0,0 l/m 1,00 h 0,00 h 404 W/m 9,1 km/h (2 Bft) 95,44 %
09.04.2017 18:00 22,9 C 23,6 C 18,0 C 41 % 0 lf 1019,3 hPa 0,0 l/m 1,00 h 0,00 h 231 W/m 6,3 km/h (2 Bft) 97,44 %
09.04.2017 19:00 21,8 C 20,8 C 15,5 C 48 % 0 lf 1018,8 hPa 0,0 l/m 1,00 h 0,00 h 75 W/m 6,6 km/h (2 Bft) 96,37 %
09.04.2017 20:00 19,4 C 16,9 C 11,2 C 56 % 0 lf 1018,7 hPa 0,0 l/m 0,13 h 0,00 h 15 W/m 3,7 km/h (1 Bft) 95,37 %
09.04.2017 21:00 16,7 C 14,6 C 9,7 C 65 % 0 lf 1018,7 hPa 0,0 l/m 0,00 h 0,00 h 0 W/m 5,2 km/h (1 Bft) 97,50 %
09.04.2017 22:00 14,2 C 12,4 C 8,6 C 72 % 0 lf 1018,5 hPa 0,0 l/m 0,00 h 0,00 h 0 W/m 3,5 km/h (1 Bft) 97,15 %
09.04.2017 23:00 12,4 C 11,1 C 7,6 C 77 % 0 lf 1018,0 hPa 0,0 l/m 0,00 h 0,00 h 0 W/m 2,5 km/h (1 Bft) 93,38 %
Min-Datum _ 09.04.17 04.04.17 09.04.17 09.04.17 03.04.17 09.04.17 - - - - 03.04.17 03.04.17
_ Min-Zeit 07:34 06:16 06:04 16:32 00:00 23:50 - - - - 01:12 13:59
Minimum _ 2,0 C 1,1 C 0,0 C 33 % 0 lf 1017,8 hPa - - - - 0,0 km/h (0 Bft) 79,17 %
Max-Datum _ 09.04.17 09.04.17 09.04.17 03.04.17 03.04.17 06.04.17 06.04.17 03.04.17 06.04.17 03.04.17 05.04.17 03.04.17
_ Max-Zeit 17:14 14:52 14:56 09:30 03:46 12:24 03:38 14:05 00:50 13:40 18:26 00:06
Maximum _ 23,8 C 35,0 C 27,2 C 98 % 15 lf 1028,2 hPa 0,2 l/m 0,08 h 0,03 h 976 W/m 41,8 km/h
N-NW (6 Bft)
100,00 %
Durchschnitt _ 10,1 C 11,5 C 8,9 C 79 % 2 lf 1024,3 hPa #0,2 l/m #48:24 h #32 min. 211 W/m 7,9 km/h (2 Bft) 96,21 %
© 2017 W. Hausmann